createdAt,value
2023-05-01T00:01:43.902Z,97451.01
2023-05-01T00:04:12.532Z,97448.15
2023-05-01T00:06:40.591Z,97451.20
2023-05-01T00:09:09.092Z,97450.73
2023-05-01T00:11:37.078Z,97459.37
2023-05-01T00:14:05.100Z,97459.41
2023-05-01T00:16:33.053Z,97462.33
2023-05-01T00:19:00.880Z,97461.34
2023-05-01T00:21:28.524Z,97462.21
2023-05-01T00:23:56.912Z,97460.30
2023-05-01T00:26:26.661Z,97470.34
2023-05-01T00:28:54.472Z,97463.19
2023-05-01T00:31:25.356Z,97466.77
2023-05-01T00:33:53.287Z,97472.75
2023-05-01T00:36:21.565Z,97469.10
2023-05-01T00:38:49.823Z,97475.86
2023-05-01T00:41:17.658Z,97479.60
2023-05-01T00:43:45.650Z,97484.52
2023-05-01T00:46:13.414Z,97480.55
2023-05-01T00:48:41.693Z,97480.59
2023-05-01T00:51:10.115Z,97485.69
2023-05-01T00:53:41.505Z,97487.14
2023-05-01T00:56:11.209Z,97493.12
2023-05-01T00:58:40.094Z,97491.38
2023-05-01T01:01:09.367Z,97487.48
2023-05-01T01:03:37.209Z,97495.88
2023-05-01T01:06:13.217Z,97493.80
2023-05-01T01:09:09.122Z,97480.11
2023-05-01T01:11:48.150Z,97496.50
2023-05-01T01:14:21.160Z,97495.52
2023-05-01T01:17:07.972Z,97497.67
2023-05-01T01:20:03.534Z,97496.88
2023-05-01T01:22:34.270Z,97491.55
2023-05-01T01:25:18.739Z,97487.84
2023-05-01T01:28:05.234Z,97493.19
2023-05-01T01:31:02.675Z,97490.55
2023-05-01T01:34:12.404Z,97494.59
2023-05-01T01:37:05.891Z,97500.00
2023-05-01T01:39:44.992Z,97497.91
2023-05-01T01:42:26.120Z,97492.91
2023-05-01T01:45:03.003Z,97494.80
2023-05-01T01:47:33.103Z,97501.00
2023-05-01T01:50:04.945Z,97492.26
2023-05-01T01:52:36.082Z,97495.45
2023-05-01T01:55:12.949Z,97498.42
2023-05-01T01:57:45.157Z,97497.39
2023-05-01T02:00:14.161Z,97494.79
2023-05-01T02:02:45.423Z,97490.27
2023-05-01T02:05:16.863Z,97493.28
2023-05-01T02:07:48.354Z,97499.74
2023-05-01T02:10:17.745Z,97500.95
2023-05-01T02:12:48.453Z,97506.14
2023-05-01T02:15:19.287Z,97498.56
2023-05-01T02:17:49.331Z,97504.47
2023-05-01T02:20:18.368Z,97491.45
2023-05-01T02:22:47.375Z,97491.16
2023-05-01T02:25:16.354Z,97494.67
2023-05-01T02:28:00.569Z,97497.61
2023-05-01T02:30:28.301Z,97487.78
2023-05-01T02:32:57.455Z,97492.06
2023-05-01T02:35:26.985Z,97497.70
2023-05-01T02:37:55.235Z,97499.06
2023-05-01T02:40:26.908Z,97497.75
2023-05-01T02:42:55.622Z,97505.78
2023-05-01T02:45:26.961Z,97504.75
2023-05-01T02:47:59.301Z,97505.05
2023-05-01T02:50:29.637Z,97504.50
2023-05-01T02:52:59.450Z,97501.56
2023-05-01T02:55:32.930Z,97502.90
2023-05-01T02:58:01.230Z,97501.32
2023-05-01T03:00:30.222Z,97506.66
2023-05-01T03:02:59.143Z,97505.56
2023-05-01T03:05:27.327Z,97516.20
2023-05-01T03:07:55.156Z,97518.09
2023-05-01T03:10:23.952Z,97520.21
2023-05-01T03:12:57.927Z,97518.09
2023-05-01T03:15:25.707Z,97521.30
2023-05-01T03:18:03.577Z,97521.30
2023-05-01T03:20:36.511Z,97520.21
2023-05-01T03:25:45.296Z,97528.52
2023-05-01T03:28:13.783Z,97526.96
2023-05-01T03:30:41.579Z,97532.56
2023-05-01T03:33:09.489Z,97534.98
2023-05-01T03:35:39.323Z,97532.44
2023-05-01T03:38:07.432Z,97535.83
2023-05-01T03:40:51.823Z,97543.16
2023-05-01T03:43:38.088Z,97542.98
2023-05-01T03:46:08.030Z,97546.41
2023-05-01T03:48:36.868Z,97546.94
2023-05-01T03:51:06.454Z,97552.73
2023-05-01T03:53:36.289Z,97547.51
2023-05-01T03:56:05.800Z,97549.69
2023-05-01T03:58:33.612Z,97545.41
2023-05-01T04:01:02.688Z,97550.11
2023-05-01T04:03:31.432Z,97552.56
2023-05-01T04:05:59.597Z,97556.67
2023-05-01T04:08:27.461Z,97554.48
2023-05-01T04:10:55.494Z,97557.58
2023-05-01T04:13:23.269Z,97558.81
2023-05-01T04:15:51.549Z,97551.15
2023-05-01T04:18:19.753Z,97551.77
2023-05-01T04:20:47.910Z,97558.74
2023-05-01T04:23:16.274Z,97559.61
2023-05-01T04:25:46.905Z,97560.75
2023-05-01T04:28:18.533Z,97561.54
2023-05-01T04:30:46.471Z,97559.89
2023-05-01T04:33:14.595Z,97564.72
2023-05-01T04:35:42.627Z,97565.84
2023-05-01T04:38:11.218Z,97567.69
2023-05-01T04:40:39.335Z,97570.56
2023-05-01T04:43:07.460Z,97564.59
2023-05-01T04:45:35.744Z,97565.69
2023-05-01T04:48:04.331Z,97572.56
2023-05-01T04:50:32.586Z,97571.59
2023-05-01T04:53:00.583Z,97580.94
2023-05-01T04:55:31.100Z,97576.80
2023-05-01T04:58:04.641Z,97577.61
2023-05-01T05:00:36.270Z,97576.81
2023-05-01T05:03:06.560Z,97581.16
2023-05-01T05:05:36.907Z,97583.05
2023-05-01T05:08:06.308Z,97580.53
2023-05-01T05:10:45.330Z,97582.02
2023-05-01T05:13:25.746Z,97579.63
2023-05-01T05:16:03.213Z,97572.89
2023-05-01T05:18:32.010Z,97589.97
2023-05-01T05:21:06.742Z,97593.41
2023-05-01T05:23:35.143Z,97595.91
2023-05-01T05:26:03.705Z,97596.88
2023-05-01T05:28:31.956Z,97599.77
2023-05-01T05:31:00.000Z,97605.75
2023-05-01T05:33:31.156Z,97602.63
2023-05-01T05:36:00.040Z,97605.28
2023-05-01T05:38:29.714Z,97615.08
2023-05-01T05:41:00.415Z,97610.28
2023-05-01T05:43:28.415Z,97610.70
2023-05-01T05:45:58.176Z,97609.80
2023-05-01T05:48:27.364Z,97619.09
2023-05-01T05:50:55.671Z,97613.62
2023-05-01T05:53:25.754Z,97603.77
2023-05-01T05:55:53.941Z,97614.94
2023-05-01T05:58:22.826Z,97626.28
2023-05-01T06:00:52.448Z,97621.94
2023-05-01T06:03:21.052Z,97625.45
2023-05-01T06:05:49.692Z,97630.09
2023-05-01T06:08:17.663Z,97631.15
2023-05-01T06:10:45.825Z,97630.45
2023-05-01T06:13:14.859Z,97629.97
2023-05-01T06:15:44.966Z,97632.44
2023-05-01T06:18:13.124Z,97629.61
2023-05-01T06:20:42.528Z,97632.61
2023-05-01T06:23:10.310Z,97621.77
2023-05-01T06:25:46.738Z,97633.78
2023-05-01T06:28:14.719Z,97628.86
2023-05-01T06:30:47.964Z,97629.34
2023-05-01T06:33:16.081Z,97632.80
2023-05-01T06:35:44.241Z,97634.55
2023-05-01T06:38:20.197Z,97632.79
2023-05-01T06:40:49.409Z,97627.51
2023-05-01T06:43:20.247Z,97631.95
2023-05-01T06:45:48.437Z,97628.36
2023-05-01T06:48:18.541Z,97630.58
2023-05-01T06:50:46.504Z,97631.48
2023-05-01T06:53:16.812Z,97633.95
2023-05-01T06:55:48.440Z,97638.48
2023-05-01T06:58:24.038Z,97631.89
2023-05-01T07:00:45.962Z,97637.36
2023-05-01T07:03:13.994Z,97641.47
2023-05-01T07:05:41.878Z,97645.42
2023-05-01T07:08:14.664Z,97647.17
2023-05-01T07:10:43.193Z,97643.80
2023-05-01T07:13:11.088Z,97648.82
2023-05-01T07:15:38.654Z,97646.64
2023-05-01T07:18:06.536Z,97651.81
2023-05-01T07:20:34.348Z,97646.22
2023-05-01T07:23:02.106Z,97646.72
2023-05-01T07:25:32.534Z,97642.02
2023-05-01T07:28:02.559Z,97651.39
2023-05-01T07:30:32.494Z,97655.02
2023-05-01T07:33:01.171Z,97653.95
2023-05-01T07:35:29.045Z,97653.81
2023-05-01T07:37:57.086Z,97657.68
2023-05-01T07:40:28.054Z,97652.61
2023-05-01T07:42:55.806Z,97655.77
2023-05-01T07:45:23.712Z,97649.87
2023-05-01T07:47:52.916Z,97650.77
2023-05-01T07:50:22.283Z,97658.68
2023-05-01T07:52:50.569Z,97657.00
2023-05-01T07:55:18.676Z,97650.45
2023-05-01T07:57:46.359Z,97652.98
2023-05-01T08:00:15.172Z,97657.84
2023-05-01T08:02:43.628Z,97655.36
2023-05-01T08:05:11.728Z,97662.67
2023-05-01T08:07:39.241Z,97660.08
2023-05-01T08:10:08.332Z,97657.84
2023-05-01T08:12:36.432Z,97663.36
2023-05-01T08:15:07.909Z,97658.39
2023-05-01T08:17:36.419Z,97657.92
2023-05-01T08:20:05.198Z,97653.07
2023-05-01T08:22:35.382Z,97653.13
2023-05-01T08:25:06.142Z,97652.73
2023-05-01T08:27:37.887Z,97649.35
2023-05-01T08:30:07.170Z,97652.36
2023-05-01T08:32:36.435Z,97654.34
2023-05-01T08:35:04.672Z,97653.70
2023-05-01T08:37:34.855Z,97651.06
2023-05-01T08:40:04.554Z,97655.90
2023-05-01T08:42:32.625Z,97650.86
2023-05-01T08:45:04.225Z,97652.88
2023-05-01T08:47:37.945Z,97655.34
2023-05-01T08:50:12.981Z,97653.83
2023-05-01T08:52:43.120Z,97664.89
2023-05-01T08:55:15.939Z,97659.29
2023-05-01T08:57:48.056Z,97656.33
2023-05-01T09:00:20.055Z,97650.70
2023-05-01T09:02:50.866Z,97656.75
2023-05-01T09:05:20.719Z,97652.53
2023-05-01T09:07:51.747Z,97652.80
2023-05-01T09:10:19.525Z,97650.92
2023-05-01T09:12:52.858Z,97647.18
2023-05-01T09:15:47.866Z,97644.70
2023-05-01T09:21:43.677Z,97646.66
2023-05-01T09:24:11.618Z,97646.90
2023-05-01T09:26:42.259Z,97650.08
2023-05-01T09:29:14.335Z,97652.55
2023-05-01T09:31:43.737Z,97645.41
2023-05-01T09:34:26.168Z,97646.57
2023-05-01T09:36:50.079Z,97647.52
2023-05-01T09:39:26.077Z,97649.77
2023-05-01T09:41:55.870Z,97649.70
2023-05-01T09:44:27.605Z,97644.47
2023-05-01T09:46:55.591Z,97642.11
2023-05-01T09:49:44.208Z,97642.59
2023-05-01T09:52:13.071Z,97642.41
2023-05-01T09:54:41.234Z,97645.30
2023-05-01T09:57:09.923Z,97639.23
2023-05-01T09:59:38.433Z,97638.73
2023-05-01T10:02:05.992Z,97633.45
2023-05-01T10:04:34.902Z,97641.86
2023-05-01T10:07:13.640Z,97639.95
2023-05-01T10:09:41.911Z,97642.14
2023-05-01T10:12:10.559Z,97640.42
2023-05-01T10:14:53.539Z,97643.06
2023-05-01T10:17:22.394Z,97642.23
2023-05-01T10:19:51.381Z,97650.48
2023-05-01T10:22:19.097Z,97640.97
2023-05-01T10:24:47.120Z,97648.31
2023-05-01T10:27:21.642Z,97650.01
2023-05-01T10:29:59.574Z,97642.41
2023-05-01T10:32:27.500Z,97642.41
2023-05-01T10:35:03.790Z,97646.05
2023-05-01T10:37:51.624Z,97646.30
2023-05-01T10:40:46.811Z,97644.20
2023-05-01T10:43:28.987Z,97644.97
2023-05-01T10:46:20.479Z,97641.27
2023-05-01T10:48:53.973Z,97639.88
2023-05-01T10:51:26.470Z,97641.07
2023-05-01T10:54:20.859Z,97643.48
2023-05-01T10:56:48.678Z,97642.18
2023-05-01T10:59:16.539Z,97642.61
2023-05-01T11:01:48.151Z,97639.53
2023-05-01T11:04:27.644Z,97643.32
2023-05-01T11:07:14.512Z,97639.72
2023-05-01T11:09:52.198Z,97634.84
2023-05-01T11:12:50.513Z,97628.69
2023-05-01T11:15:31.698Z,97636.13
2023-05-01T11:18:01.926Z,97638.36
2023-05-01T11:20:48.353Z,97632.67
2023-05-01T11:23:17.862Z,97631.61
2023-05-01T11:25:47.276Z,97632.98
2023-05-01T11:28:19.037Z,97630.22
2023-05-01T11:30:47.174Z,97630.13
2023-05-01T11:33:21.725Z,97622.16
2023-05-01T11:35:56.324Z,97623.97
2023-05-01T11:38:23.951Z,97620.31
2023-05-01T11:40:59.962Z,97620.50
2023-05-01T11:43:27.872Z,97618.38
2023-05-01T11:45:58.085Z,97618.34
2023-05-01T11:48:26.638Z,97620.08
2023-05-01T11:50:54.581Z,97608.98
2023-05-01T11:53:22.445Z,97611.64
2023-05-01T11:55:50.994Z,97609.41
2023-05-01T11:58:23.690Z,97613.27
2023-05-01T12:00:52.241Z,97617.11
2023-05-01T12:03:20.262Z,97605.55
2023-05-01T12:05:49.913Z,97610.09
2023-05-01T12:08:24.424Z,97603.02
2023-05-01T12:10:56.657Z,97599.41
2023-05-01T12:13:26.780Z,97601.50
2023-05-01T12:15:55.866Z,97606.78
2023-05-01T12:18:23.914Z,97603.20
2023-05-01T12:20:54.850Z,97602.81
2023-05-01T12:23:34.040Z,97600.60
2023-05-01T12:26:04.568Z,97603.31
2023-05-01T12:28:32.299Z,97604.23
2023-05-01T12:31:05.385Z,97606.27
2023-05-01T12:33:33.174Z,97610.17
2023-05-01T12:36:11.338Z,97604.12
2023-05-01T12:38:39.507Z,97596.58
2023-05-01T12:41:08.870Z,97598.92
2023-05-01T12:43:37.773Z,97596.47
2023-05-01T12:46:14.760Z,97598.37
2023-05-01T12:48:45.495Z,97591.77
2023-05-01T12:51:19.969Z,97582.68
2023-05-01T12:53:48.713Z,97585.77
2023-05-01T12:56:36.192Z,97584.73
2023-05-01T12:59:26.404Z,97584.70
2023-05-01T13:02:00.237Z,97587.80
2023-05-01T13:04:28.700Z,97588.95
2023-05-01T13:07:27.883Z,97592.78
2023-05-01T13:10:01.356Z,97581.95
2023-05-01T13:12:55.029Z,97582.68
2023-05-01T13:15:23.733Z,97588.02
2023-05-01T13:17:55.417Z,97579.98
2023-05-01T13:20:33.246Z,97580.58
2023-05-01T13:23:07.324Z,97581.56
2023-05-01T13:25:37.499Z,97579.08
2023-05-01T13:28:06.269Z,97576.79
2023-05-01T13:30:39.140Z,97576.64
2023-05-01T13:33:33.429Z,97577.66
2023-05-01T13:36:14.213Z,97573.39
2023-05-01T13:38:45.714Z,97580.48
2023-05-01T13:41:19.144Z,97572.64
2023-05-01T13:43:50.096Z,97574.63
2023-05-01T13:46:22.567Z,97577.94
2023-05-01T13:49:02.857Z,97577.77
2023-05-01T13:51:37.741Z,97569.30
2023-05-01T13:54:12.531Z,97570.39
2023-05-01T13:56:41.264Z,97568.79
2023-05-01T13:59:10.367Z,97572.97
2023-05-01T14:02:30.308Z,97569.09
2023-05-01T14:12:40.333Z,97570.88
2023-05-01T14:16:10.957Z,97570.95
2023-05-01T14:18:33.345Z,97564.97
2023-05-01T14:21:31.673Z,97566.53
2023-05-01T14:27:22.073Z,97561.98
2023-05-01T14:30:19.576Z,97561.17
2023-05-01T14:32:54.981Z,97561.57
2023-05-01T14:36:02.592Z,97565.12
2023-05-01T14:39:04.466Z,97563.94
2023-05-01T14:41:58.939Z,97562.91
2023-05-01T14:44:39.674Z,97561.95
2023-05-01T14:47:09.573Z,97566.84
2023-05-01T14:49:40.470Z,97543.20
2023-05-01T14:52:09.516Z,97559.05
2023-05-01T14:54:47.636Z,97562.22
2023-05-01T14:57:36.771Z,97556.31
2023-05-01T15:03:57.257Z,97555.02
2023-05-01T15:07:06.410Z,97555.80
2023-05-01T15:09:36.076Z,97558.36
2023-05-01T15:12:10.194Z,97552.67
2023-05-01T15:14:47.839Z,97555.77
2023-05-01T15:17:32.360Z,97551.27
2023-05-01T15:20:17.813Z,97555.17
2023-05-01T15:22:47.515Z,97550.69
2023-05-01T15:25:20.566Z,97551.86
2023-05-01T15:27:51.186Z,97556.92
2023-05-01T15:30:25.867Z,97546.17
2023-05-01T15:36:35.320Z,97545.23
2023-05-01T15:39:06.043Z,97555.19
2023-05-01T15:41:50.927Z,97556.98
2023-05-01T15:44:35.894Z,97551.71
2023-05-01T15:47:05.501Z,97551.36
2023-05-01T15:49:41.810Z,97557.05
2023-05-01T15:52:11.541Z,97552.36
2023-05-01T15:55:04.167Z,97549.42
2023-05-01T15:57:59.177Z,97549.42
2023-05-01T16:00:38.749Z,97549.62
2023-05-01T16:03:10.708Z,97549.22
2023-05-01T16:06:20.345Z,97548.26
2023-05-01T16:09:01.177Z,97549.63
2023-05-01T16:12:02.602Z,97550.78
2023-05-01T16:14:31.183Z,97548.63
2023-05-01T16:17:08.047Z,97547.08
2023-05-01T16:19:58.036Z,97545.31
2023-05-01T16:22:56.163Z,97543.35
2023-05-01T16:25:24.019Z,97543.34
2023-05-01T16:27:54.144Z,97545.52
2023-05-01T16:39:37.909Z,97557.92
2023-05-01T16:42:05.730Z,97559.05
2023-05-01T16:44:36.030Z,97553.79
2023-05-01T16:50:07.039Z,97557.27
2023-05-01T16:52:34.745Z,97559.16
2023-05-01T16:55:03.169Z,97555.25
2023-05-01T16:57:32.782Z,97550.72
2023-05-01T17:00:05.565Z,97560.06
2023-05-01T17:02:34.498Z,97561.40
2023-05-01T17:05:02.953Z,97562.92
2023-05-01T17:07:38.035Z,97560.93
2023-05-01T17:13:30.503Z,97565.33
2023-05-01T17:15:59.103Z,97564.09
2023-05-01T17:18:26.664Z,97565.22
2023-05-01T17:20:54.517Z,97562.19
2023-05-01T17:23:22.512Z,97561.14
2023-05-01T17:25:50.206Z,97571.52
2023-05-01T17:28:19.191Z,97566.84
2023-05-01T17:30:46.776Z,97571.52
2023-05-01T17:33:16.152Z,97573.70
2023-05-01T17:35:45.361Z,97572.55
2023-05-01T17:41:25.576Z,97579.60
2023-05-01T17:44:00.215Z,97585.02
2023-05-01T17:46:31.301Z,97587.62
2023-05-01T17:48:59.299Z,97587.16
2023-05-01T17:51:29.673Z,97584.52
2023-05-01T17:53:59.160Z,97583.66
2023-05-01T17:56:30.559Z,97595.25
2023-05-01T17:59:00.032Z,97593.95
2023-05-01T18:01:47.892Z,97596.99
2023-05-01T18:10:39.351Z,97606.82
2023-05-01T18:13:19.539Z,97612.21
2023-05-01T18:15:50.540Z,97614.28
2023-05-01T18:18:18.414Z,97618.78
2023-05-01T18:20:48.458Z,97619.24
2023-05-01T18:23:18.194Z,97622.41
2023-05-01T18:25:46.059Z,97626.91
2023-05-01T18:28:18.266Z,97626.98
2023-05-01T18:30:46.096Z,97637.91
2023-05-01T18:33:14.212Z,97639.00
2023-05-01T18:35:45.542Z,97633.09
2023-05-01T18:38:14.468Z,97645.20
2023-05-01T18:40:44.273Z,97641.39
2023-05-01T18:43:13.697Z,97652.92
2023-05-01T18:45:44.512Z,97658.04
2023-05-01T18:48:12.387Z,97659.66
2023-05-01T18:50:42.562Z,97666.22
2023-05-01T18:53:14.055Z,97664.98
2023-05-01T18:55:42.129Z,97670.75
2023-05-01T18:58:10.605Z,97671.67
2023-05-01T19:00:39.386Z,97674.48
2023-05-01T19:03:08.465Z,97675.97
2023-05-01T19:05:37.327Z,97677.32
2023-05-01T19:08:06.954Z,97686.56
2023-05-01T19:10:37.294Z,97687.12
2023-05-01T19:13:07.266Z,97687.11
2023-05-01T19:15:35.762Z,97689.58
2023-05-01T19:18:05.684Z,97690.27
2023-05-01T19:20:33.397Z,97689.53
2023-05-01T19:23:04.011Z,97696.27
2023-05-01T19:25:32.057Z,97697.16
2023-05-01T19:28:01.617Z,97699.62
2023-05-01T19:30:30.387Z,97700.25
2023-05-01T19:32:59.351Z,97702.14
2023-05-01T19:35:27.171Z,97703.38
2023-05-01T19:40:52.452Z,97705.56
2023-05-01T19:43:23.632Z,97706.66
2023-05-01T19:45:51.654Z,97700.19
2023-05-01T19:48:20.161Z,97709.28
2023-05-01T19:50:51.363Z,97711.94
2023-05-01T19:53:21.439Z,97708.89
2023-05-01T19:55:50.001Z,97703.70
2023-05-01T19:58:21.465Z,97704.66
2023-05-01T20:00:51.550Z,97707.09
2023-05-01T20:03:21.844Z,97707.87
2023-05-01T20:06:01.744Z,97703.21
2023-05-01T20:08:36.573Z,97712.29
2023-05-01T20:11:04.582Z,97707.41
2023-05-01T20:13:34.908Z,97710.50
2023-05-01T20:16:09.008Z,97711.45
2023-05-01T20:18:53.277Z,97711.09
2023-05-01T20:21:23.050Z,97708.59
2023-05-01T20:23:51.818Z,97708.77
2023-05-01T20:26:29.174Z,97712.19
2023-05-01T20:29:41.488Z,97714.20
2023-05-01T20:32:15.138Z,97709.55
2023-05-01T20:34:45.181Z,97704.20
2023-05-01T20:37:13.824Z,97711.33
2023-05-01T20:39:42.694Z,97713.34
2023-05-01T20:42:11.788Z,97715.72
2023-05-01T20:44:45.648Z,97718.05
2023-05-01T20:47:14.708Z,97717.11
2023-05-01T20:49:43.570Z,97721.86
2023-05-01T20:52:12.930Z,97719.92
2023-05-01T20:54:40.851Z,97727.59
2023-05-01T20:57:11.612Z,97725.86
2023-05-01T20:59:43.583Z,97715.02
2023-05-01T21:02:12.238Z,97718.38
2023-05-01T21:04:58.087Z,97722.27
2023-05-01T21:07:26.029Z,97721.55
2023-05-01T21:09:57.940Z,97726.78
2023-05-01T21:12:36.595Z,97733.25
2023-05-01T21:15:11.607Z,97728.77
2023-05-01T21:17:44.335Z,97737.70
2023-05-01T21:20:23.959Z,97733.99
2023-05-01T21:22:56.862Z,97738.96
2023-05-01T21:25:29.751Z,97740.08
2023-05-01T21:28:02.923Z,97742.38
2023-05-01T21:30:34.836Z,97741.74
2023-05-01T21:33:14.594Z,97746.66
2023-05-01T21:35:46.013Z,97746.51
2023-05-01T21:38:17.841Z,97749.34
2023-05-01T21:40:49.541Z,97751.15
2023-05-01T21:43:22.438Z,97754.95
2023-05-01T21:45:50.707Z,97752.33
2023-05-01T21:48:20.897Z,97751.87
2023-05-01T21:51:11.209Z,97764.05
2023-05-01T21:53:43.846Z,97771.06
2023-05-01T21:56:14.918Z,97762.51
2023-05-01T21:58:44.694Z,97769.00
2023-05-01T22:01:18.389Z,97769.86
2023-05-01T22:03:47.388Z,97766.94
2023-05-01T22:06:16.452Z,97765.33
2023-05-01T22:08:45.311Z,97771.83
2023-05-01T22:11:13.507Z,97780.22
2023-05-01T22:13:42.904Z,97790.19
2023-05-01T22:16:15.677Z,97784.55
2023-05-01T22:19:08.339Z,97782.19
2023-05-01T22:21:36.480Z,97793.56
2023-05-01T22:24:06.128Z,97789.59
2023-05-01T22:26:38.235Z,97793.95
2023-05-01T22:29:11.840Z,97783.27
2023-05-01T22:31:42.294Z,97792.67
2023-05-01T22:34:10.875Z,97797.27
2023-05-01T22:36:38.815Z,97797.88
2023-05-01T22:39:07.178Z,97796.86
2023-05-01T22:41:35.683Z,97796.38
2023-05-01T22:44:03.687Z,97798.83
2023-05-01T22:46:31.801Z,97802.62
2023-05-01T22:49:02.679Z,97802.37
2023-05-01T22:51:30.917Z,97795.19
2023-05-01T22:53:58.691Z,97793.28
2023-05-01T22:56:27.410Z,97794.13
2023-05-01T22:58:56.262Z,97791.77
2023-05-01T23:01:24.328Z,97793.23
2023-05-01T23:03:52.848Z,97794.34
2023-05-01T23:06:21.761Z,97790.09
2023-05-01T23:08:55.946Z,97793.06
2023-05-01T23:11:35.001Z,97793.86
2023-05-01T23:17:15.344Z,97788.87
2023-05-01T23:19:46.305Z,97791.38
2023-05-01T23:22:15.011Z,97792.00
2023-05-01T23:24:49.019Z,97793.00
2023-05-01T23:27:27.145Z,97798.20
2023-05-01T23:29:58.653Z,97795.34
2023-05-01T23:32:30.205Z,97789.00
2023-05-01T23:35:15.061Z,97792.30
2023-05-01T23:37:43.323Z,97790.78
2023-05-01T23:40:11.504Z,97794.17
2023-05-01T23:42:39.700Z,97794.28
2023-05-01T23:45:09.050Z,97797.11
2023-05-01T23:47:38.329Z,97800.96
2023-05-01T23:50:07.146Z,97805.05
2023-05-01T23:52:36.364Z,97801.39
2023-05-01T23:55:04.757Z,97806.53
2023-05-01T23:57:34.054Z,97810.38
